sensor_id;sensor_type;location;lat;lon;timestamp;temperature;humidity
2631;DHT22;1325;48.414;9.952;2022-08-04T00:01:18;21.60;99.90
2631;DHT22;1325;48.414;9.952;2022-08-04T00:03:56;21.60;99.90
2631;DHT22;1325;48.414;9.952;2022-08-04T00:06:33;21.60;99.90
2631;DHT22;1325;48.414;9.952;2022-08-04T00:09:13;21.30;99.90
2631;DHT22;1325;48.414;9.952;2022-08-04T00:11:48;21.30;99.90
2631;DHT22;1325;48.414;9.952;2022-08-04T00:14:16;21.20;99.90
2631;DHT22;1325;48.414;9.952;2022-08-04T00:16:46;21.20;99.90
2631;DHT22;1325;48.414;9.952;2022-08-04T00:19:17;21.40;99.90
2631;DHT22;1325;48.414;9.952;2022-08-04T00:22:02;21.40;99.90
2631;DHT22;1325;48.414;9.952;2022-08-04T00:24:30;21.30;99.90
2631;DHT22;1325;48.414;9.952;2022-08-04T00:26:59;21.40;99.90
2631;DHT22;1325;48.414;9.952;2022-08-04T00:29:26;21.50;99.90
2631;DHT22;1325;48.414;9.952;2022-08-04T00:31:55;21.30;99.90
2631;DHT22;1325;48.414;9.952;2022-08-04T00:34:24;21.20;99.90
2631;DHT22;1325;48.414;9.952;2022-08-04T00:36:53;21.30;99.90
2631;DHT22;1325;48.414;9.952;2022-08-04T00:39:21;21.20;99.90
2631;DHT22;1325;48.414;9.952;2022-08-04T00:42:01;21.30;99.90
2631;DHT22;1325;48.414;9.952;2022-08-04T00:44:44;21.20;99.90
2631;DHT22;1325;48.414;9.952;2022-08-04T00:47:39;21.30;99.90
2631;DHT22;1325;48.414;9.952;2022-08-04T00:50:18;20.90;99.90
2631;DHT22;1325;48.414;9.952;2022-08-04T00:53:03;20.90;99.90
2631;DHT22;1325;48.414;9.952;2022-08-04T00:56:03;20.90;99.90
2631;DHT22;1325;48.414;9.952;2022-08-04T00:58:51;20.80;99.90
2631;DHT22;1325;48.414;9.952;2022-08-04T01:01:40;20.90;99.90
2631;DHT22;1325;48.414;9.952;2022-08-04T01:04:23;21.00;99.90
2631;DHT22;1325;48.414;9.952;2022-08-04T01:07:13;21.20;99.90
2631;DHT22;1325;48.414;9.952;2022-08-04T01:09:55;21.20;99.90
2631;DHT22;1325;48.414;9.952;2022-08-04T01:12:57;21.10;99.90
2631;DHT22;1325;48.414;9.952;2022-08-04T01:15:40;20.90;99.90
2631;DHT22;1325;48.414;9.952;2022-08-04T01:18:20;20.90;99.90
2631;DHT22;1325;48.414;9.952;2022-08-04T01:21:01;20.90;99.90
2631;DHT22;1325;48.414;9.952;2022-08-04T01:24:01;20.80;99.90
2631;DHT22;1325;48.414;9.952;2022-08-04T01:26:47;20.60;99.90
2631;DHT22;1325;48.414;9.952;2022-08-04T01:29:20;20.70;99.90
2631;DHT22;1325;48.414;9.952;2022-08-04T01:31:57;20.80;99.90
2631;DHT22;1325;48.414;9.952;2022-08-04T01:34:30;20.80;99.90
2631;DHT22;1325;48.414;9.952;2022-08-04T01:37:07;20.80;99.90
2631;DHT22;1325;48.414;9.952;2022-08-04T01:39:41;20.60;99.90
2631;DHT22;1325;48.414;9.952;2022-08-04T01:42:16;20.60;99.90
2631;DHT22;1325;48.414;9.952;2022-08-04T01:44:49;20.70;99.90
2631;DHT22;1325;48.414;9.952;2022-08-04T01:47:19;20.60;99.90
2631;DHT22;1325;48.414;9.952;2022-08-04T01:49:49;20.70;99.90
2631;DHT22;1325;48.414;9.952;2022-08-04T01:52:17;20.60;99.90
2631;DHT22;1325;48.414;9.952;2022-08-04T01:54:45;20.60;99.90
2631;DHT22;1325;48.414;9.952;2022-08-04T01:57:14;20.70;99.90
2631;DHT22;1325;48.414;9.952;2022-08-04T01:59:44;20.70;99.90
2631;DHT22;1325;48.414;9.952;2022-08-04T02:02:14;20.80;99.90
2631;DHT22;1325;48.414;9.952;2022-08-04T02:04:41;20.70;99.90
2631;DHT22;1325;48.414;9.952;2022-08-04T02:07:19;20.50;99.90
2631;DHT22;1325;48.414;9.952;2022-08-04T02:10:03;20.40;99.90
2631;DHT22;1325;48.414;9.952;2022-08-04T02:12:39;20.30;99.90
2631;DHT22;1325;48.414;9.952;2022-08-04T02:15:23;20.30;99.90
2631;DHT22;1325;48.414;9.952;2022-08-04T02:17:59;20.20;99.90
2631;DHT22;1325;48.414;9.952;2022-08-04T02:20:32;20.20;99.90
2631;DHT22;1325;48.414;9.952;2022-08-04T02:23:03;20.30;99.90
2631;DHT22;1325;48.414;9.952;2022-08-04T02:25:36;20.20;99.90
2631;DHT22;1325;48.414;9.952;2022-08-04T02:28:21;20.00;99.90
2631;DHT22;1325;48.414;9.952;2022-08-04T02:31:03;20.10;99.90
2631;DHT22;1325;48.414;9.952;2022-08-04T02:33:38;20.00;99.90
2631;DHT22;1325;48.414;9.952;2022-08-04T02:36:09;19.80;99.90
2631;DHT22;1325;48.414;9.952;2022-08-04T02:38:51;19.60;99.90
2631;DHT22;1325;48.414;9.952;2022-08-04T02:41:23;19.70;99.90
2631;DHT22;1325;48.414;9.952;2022-08-04T02:44:09;20.00;99.90
2631;DHT22;1325;48.414;9.952;2022-08-04T02:46:38;20.10;99.90
2631;DHT22;1325;48.414;9.952;2022-08-04T02:49:09;20.00;99.90
2631;DHT22;1325;48.414;9.952;2022-08-04T02:51:40;19.60;99.90
2631;DHT22;1325;48.414;9.952;2022-08-04T02:54:10;19.10;99.90
2631;DHT22;1325;48.414;9.952;2022-08-04T02:56:38;18.90;99.90
2631;DHT22;1325;48.414;9.952;2022-08-04T02:59:08;19.20;99.90
2631;DHT22;1325;48.414;9.952;2022-08-04T03:01:39;19.00;99.90
2631;DHT22;1325;48.414;9.952;2022-08-04T03:04:22;19.20;99.90
2631;DHT22;1325;48.414;9.952;2022-08-04T03:13:55;19.80;99.90
2631;DHT22;1325;48.414;9.952;2022-08-04T03:16:53;19.90;99.90
2631;DHT22;1325;48.414;9.952;2022-08-04T03:23:18;19.60;99.90
2631;DHT22;1325;48.414;9.952;2022-08-04T03:26:36;19.60;99.90
2631;DHT22;1325;48.414;9.952;2022-08-04T03:29:58;19.70;99.90
2631;DHT22;1325;48.414;9.952;2022-08-04T03:33:08;19.40;99.90
2631;DHT22;1325;48.414;9.952;2022-08-04T03:36:17;18.60;99.90
2631;DHT22;1325;48.414;9.952;2022-08-04T03:39:21;18.60;99.90
2631;DHT22;1325;48.414;9.952;2022-08-04T03:42:12;18.90;99.90
2631;DHT22;1325;48.414;9.952;2022-08-04T03:48:33;19.40;99.90
2631;DHT22;1325;48.414;9.952;2022-08-04T03:51:40;19.20;99.90
2631;DHT22;1325;48.414;9.952;2022-08-04T03:54:43;19.40;99.90
2631;DHT22;1325;48.414;9.952;2022-08-04T04:00:50;19.20;99.90
2631;DHT22;1325;48.414;9.952;2022-08-04T04:03:50;18.90;99.90
2631;DHT22;1325;48.414;9.952;2022-08-04T04:06:52;19.00;99.90
2631;DHT22;1325;48.414;9.952;2022-08-04T04:16:42;19.40;99.90
2631;DHT22;1325;48.414;9.952;2022-08-04T04:22:59;19.20;99.90
2631;DHT22;1325;48.414;9.952;2022-08-04T04:25:34;19.20;99.90
2631;DHT22;1325;48.414;9.952;2022-08-04T04:28:29;19.20;99.90
2631;DHT22;1325;48.414;9.952;2022-08-04T04:31:21;19.50;99.90
2631;DHT22;1325;48.414;9.952;2022-08-04T04:34:07;19.60;99.90
2631;DHT22;1325;48.414;9.952;2022-08-04T04:36:55;19.60;99.90
2631;DHT22;1325;48.414;9.952;2022-08-04T04:39:48;19.70;99.90
2631;DHT22;1325;48.414;9.952;2022-08-04T04:42:37;19.70;99.90
2631;DHT22;1325;48.414;9.952;2022-08-04T04:45:19;19.80;99.90
2631;DHT22;1325;48.414;9.952;2022-08-04T04:48:07;19.90;99.90
2631;DHT22;1325;48.414;9.952;2022-08-04T04:50:47;19.20;99.90
2631;DHT22;1325;48.414;9.952;2022-08-04T04:53:26;19.00;99.90
2631;DHT22;1325;48.414;9.952;2022-08-04T04:56:13;19.40;99.90
2631;DHT22;1325;48.414;9.952;2022-08-04T04:58:43;19.40;99.90
2631;DHT22;1325;48.414;9.952;2022-08-04T05:04:30;20.30;99.90
2631;DHT22;1325;48.414;9.952;2022-08-04T05:07:38;20.40;99.90
2631;DHT22;1325;48.414;9.952;2022-08-04T05:10:26;20.40;99.90
2631;DHT22;1325;48.414;9.952;2022-08-04T05:13:17;19.90;99.90
2631;DHT22;1325;48.414;9.952;2022-08-04T05:16:04;19.60;99.90
2631;DHT22;1325;48.414;9.952;2022-08-04T05:18:36;19.70;99.90
2631;DHT22;1325;48.414;9.952;2022-08-04T05:21:14;20.50;99.90
2631;DHT22;1325;48.414;9.952;2022-08-04T05:23:49;21.40;99.90
2631;DHT22;1325;48.414;9.952;2022-08-04T05:26:24;22.20;99.90
2631;DHT22;1325;48.414;9.952;2022-08-04T05:28:56;22.80;99.90
2631;DHT22;1325;48.414;9.952;2022-08-04T05:31:28;23.30;99.90
2631;DHT22;1325;48.414;9.952;2022-08-04T05:34:02;23.60;99.90
2631;DHT22;1325;48.414;9.952;2022-08-04T05:36:36;23.20;99.90
2631;DHT22;1325;48.414;9.952;2022-08-04T05:39:10;23.10;99.90
2631;DHT22;1325;48.414;9.952;2022-08-04T05:41:39;23.50;99.90
2631;DHT22;1325;48.414;9.952;2022-08-04T05:44:09;24.00;99.90
2631;DHT22;1325;48.414;9.952;2022-08-04T05:46:37;22.40;99.90
2631;DHT22;1325;48.414;9.952;2022-08-04T05:49:06;21.30;99.90
2631;DHT22;1325;48.414;9.952;2022-08-04T05:51:34;20.70;99.90
2631;DHT22;1325;48.414;9.952;2022-08-04T05:54:02;20.60;99.90
2631;DHT22;1325;48.414;9.952;2022-08-04T05:56:31;20.80;99.90
2631;DHT22;1325;48.414;9.952;2022-08-04T05:59:00;21.30;99.90
2631;DHT22;1325;48.414;9.952;2022-08-04T06:01:31;21.50;99.90
2631;DHT22;1325;48.414;9.952;2022-08-04T06:04:01;21.80;99.90
2631;DHT22;1325;48.414;9.952;2022-08-04T06:06:29;21.80;99.90
2631;DHT22;1325;48.414;9.952;2022-08-04T06:08:57;22.00;99.90
2631;DHT22;1325;48.414;9.952;2022-08-04T06:11:26;22.50;99.90
2631;DHT22;1325;48.414;9.952;2022-08-04T06:13:57;22.90;99.90
2631;DHT22;1325;48.414;9.952;2022-08-04T06:16:36;23.30;99.90
2631;DHT22;1325;48.414;9.952;2022-08-04T06:19:07;23.70;99.90
2631;DHT22;1325;48.414;9.952;2022-08-04T06:21:37;24.30;99.90
2631;DHT22;1325;48.414;9.952;2022-08-04T06:24:11;24.60;99.90
2631;DHT22;1325;48.414;9.952;2022-08-04T06:26:39;24.60;99.90
2631;DHT22;1325;48.414;9.952;2022-08-04T06:29:06;24.60;99.90
2631;DHT22;1325;48.414;9.952;2022-08-04T06:31:43;24.70;99.90
2631;DHT22;1325;48.414;9.952;2022-08-04T06:34:22;24.70;99.90
2631;DHT22;1325;48.414;9.952;2022-08-04T06:36:50;25.40;99.90
2631;DHT22;1325;48.414;9.952;2022-08-04T06:39:18;27.00;99.90
2631;DHT22;1325;48.414;9.952;2022-08-04T06:41:48;26.50;99.90
2631;DHT22;1325;48.414;9.952;2022-08-04T06:44:18;27.30;99.90
2631;DHT22;1325;48.414;9.952;2022-08-04T06:46:47;27.80;99.90
2631;DHT22;1325;48.414;9.952;2022-08-04T06:49:16;26.30;99.90
2631;DHT22;1325;48.414;9.952;2022-08-04T06:51:44;26.30;99.90
2631;DHT22;1325;48.414;9.952;2022-08-04T06:54:12;25.80;99.90
2631;DHT22;1325;48.414;9.952;2022-08-04T06:56:42;25.80;99.90
2631;DHT22;1325;48.414;9.952;2022-08-04T06:59:11;26.40;99.90
2631;DHT22;1325;48.414;9.952;2022-08-04T07:01:40;26.40;99.90
2631;DHT22;1325;48.414;9.952;2022-08-04T07:04:10;27.40;99.90
2631;DHT22;1325;48.414;9.952;2022-08-04T07:06:37;27.60;99.90
2631;DHT22;1325;48.414;9.952;2022-08-04T07:09:05;29.40;99.90
2631;DHT22;1325;48.414;9.952;2022-08-04T07:11:33;28.80;99.90
2631;DHT22;1325;48.414;9.952;2022-08-04T07:14:02;30.20;99.90
2631;DHT22;1325;48.414;9.952;2022-08-04T07:16:31;29.10;99.90
2631;DHT22;1325;48.414;9.952;2022-08-04T07:18:59;27.90;99.90
2631;DHT22;1325;48.414;9.952;2022-08-04T07:21:28;27.50;99.90
2631;DHT22;1325;48.414;9.952;2022-08-04T07:23:55;28.20;99.90
2631;DHT22;1325;48.414;9.952;2022-08-04T07:26:27;27.80;99.90
2631;DHT22;1325;48.414;9.952;2022-08-04T07:28:55;28.70;99.90
2631;DHT22;1325;48.414;9.952;2022-08-04T07:31:24;28.20;99.90
2631;DHT22;1325;48.414;9.952;2022-08-04T07:33:52;28.50;99.90
2631;DHT22;1325;48.414;9.952;2022-08-04T07:36:21;28.20;99.90
2631;DHT22;1325;48.414;9.952;2022-08-04T07:38:49;28.50;99.90
2631;DHT22;1325;48.414;9.952;2022-08-04T07:41:20;29.50;99.90
2631;DHT22;1325;48.414;9.952;2022-08-04T07:43:48;30.70;99.90
2631;DHT22;1325;48.414;9.952;2022-08-04T07:46:15;29.30;99.90
2631;DHT22;1325;48.414;9.952;2022-08-04T07:48:43;29.10;99.90
2631;DHT22;1325;48.414;9.952;2022-08-04T07:51:11;30.70;99.90
2631;DHT22;1325;48.414;9.952;2022-08-04T07:53:39;30.00;99.90
2631;DHT22;1325;48.414;9.952;2022-08-04T07:56:07;30.80;99.90
2631;DHT22;1325;48.414;9.952;2022-08-04T07:58:35;30.70;99.90
2631;DHT22;1325;48.414;9.952;2022-08-04T08:01:02;30.10;99.90
2631;DHT22;1325;48.414;9.952;2022-08-04T08:03:29;30.30;99.90
2631;DHT22;1325;48.414;9.952;2022-08-04T08:05:57;30.30;99.90
2631;DHT22;1325;48.414;9.952;2022-08-04T08:08:24;31.80;99.90
2631;DHT22;1325;48.414;9.952;2022-08-04T08:10:51;32.20;99.90
2631;DHT22;1325;48.414;9.952;2022-08-04T08:13:21;31.80;99.90
2631;DHT22;1325;48.414;9.952;2022-08-04T08:15:49;32.10;99.90
2631;DHT22;1325;48.414;9.952;2022-08-04T08:18:18;30.90;99.90
2631;DHT22;1325;48.414;9.952;2022-08-04T08:20:45;31.40;99.90
2631;DHT22;1325;48.414;9.952;2022-08-04T08:23:13;31.30;99.90
2631;DHT22;1325;48.414;9.952;2022-08-04T08:25:40;31.40;99.90
2631;DHT22;1325;48.414;9.952;2022-08-04T08:28:07;31.70;99.90
2631;DHT22;1325;48.414;9.952;2022-08-04T08:30:37;31.30;99.90
2631;DHT22;1325;48.414;9.952;2022-08-04T08:33:08;30.50;99.90
2631;DHT22;1325;48.414;9.952;2022-08-04T08:35:47;30.20;99.90
2631;DHT22;1325;48.414;9.952;2022-08-04T08:38:23;31.50;99.90
2631;DHT22;1325;48.414;9.952;2022-08-04T08:41:02;30.80;99.90
2631;DHT22;1325;48.414;9.952;2022-08-04T08:43:56;31.00;99.90
2631;DHT22;1325;48.414;9.952;2022-08-04T08:46:58;31.10;99.90
2631;DHT22;1325;48.414;9.952;2022-08-04T08:50:03;31.80;99.90
2631;DHT22;1325;48.414;9.952;2022-08-04T08:52:57;33.10;99.90
2631;DHT22;1325;48.414;9.952;2022-08-04T08:55:41;32.20;99.90
2631;DHT22;1325;48.414;9.952;2022-08-04T09:01:34;32.50;99.90
2631;DHT22;1325;48.414;9.952;2022-08-04T09:07:45;33.00;99.90
2631;DHT22;1325;48.414;9.952;2022-08-04T09:10:24;31.50;99.90
2631;DHT22;1325;48.414;9.952;2022-08-04T09:12:58;31.90;99.90
2631;DHT22;1325;48.414;9.952;2022-08-04T09:15:35;32.20;99.90
2631;DHT22;1325;48.414;9.952;2022-08-04T09:18:12;31.70;99.90
2631;DHT22;1325;48.414;9.952;2022-08-04T09:20:49;32.50;99.90
2631;DHT22;1325;48.414;9.952;2022-08-04T09:23:24;32.20;99.90
2631;DHT22;1325;48.414;9.952;2022-08-04T09:26:00;32.50;99.90
2631;DHT22;1325;48.414;9.952;2022-08-04T09:28:37;32.90;99.90
2631;DHT22;1325;48.414;9.952;2022-08-04T09:31:35;32.80;99.90
2631;DHT22;1325;48.414;9.952;2022-08-04T09:34:10;33.00;99.90
2631;DHT22;1325;48.414;9.952;2022-08-04T09:36:46;34.40;99.90
2631;DHT22;1325;48.414;9.952;2022-08-04T09:39:36;35.00;99.90
2631;DHT22;1325;48.414;9.952;2022-08-04T09:42:15;34.10;99.90
2631;DHT22;1325;48.414;9.952;2022-08-04T09:44:52;33.90;99.90
2631;DHT22;1325;48.414;9.952;2022-08-04T09:47:30;33.80;99.90
2631;DHT22;1325;48.414;9.952;2022-08-04T09:50:03;34.40;99.90
2631;DHT22;1325;48.414;9.952;2022-08-04T09:52:51;34.70;99.90
2631;DHT22;1325;48.414;9.952;2022-08-04T09:55:31;35.70;98.80
2631;DHT22;1325;48.414;9.952;2022-08-04T09:58:08;35.60;99.90
2631;DHT22;1325;48.414;9.952;2022-08-04T10:00:45;35.40;99.90
2631;DHT22;1325;48.414;9.952;2022-08-04T10:03:15;35.00;99.90
2631;DHT22;1325;48.414;9.952;2022-08-04T10:05:56;35.00;99.90
2631;DHT22;1325;48.414;9.952;2022-08-04T10:08:42;35.60;99.90
2631;DHT22;1325;48.414;9.952;2022-08-04T10:11:28;34.80;99.90
2631;DHT22;1325;48.414;9.952;2022-08-04T10:14:08;34.90;99.90
2631;DHT22;1325;48.414;9.952;2022-08-04T10:16:46;34.40;99.90
2631;DHT22;1325;48.414;9.952;2022-08-04T10:19:25;35.10;99.90
2631;DHT22;1325;48.414;9.952;2022-08-04T10:22:01;34.00;99.90
2631;DHT22;1325;48.414;9.952;2022-08-04T10:24:47;33.80;99.90
2631;DHT22;1325;48.414;9.952;2022-08-04T10:27:23;33.80;99.90
2631;DHT22;1325;48.414;9.952;2022-08-04T10:29:57;33.70;99.90
2631;DHT22;1325;48.414;9.952;2022-08-04T10:32:32;33.60;99.90
2631;DHT22;1325;48.414;9.952;2022-08-04T10:35:07;33.90;99.90
2631;DHT22;1325;48.414;9.952;2022-08-04T10:37:41;34.20;99.90
2631;DHT22;1325;48.414;9.952;2022-08-04T10:40:17;34.10;99.90
2631;DHT22;1325;48.414;9.952;2022-08-04T10:43:05;34.90;99.90
2631;DHT22;1325;48.414;9.952;2022-08-04T10:45:40;35.50;95.90
2631;DHT22;1325;48.414;9.952;2022-08-04T10:48:18;35.30;96.30
2631;DHT22;1325;48.414;9.952;2022-08-04T10:51:01;35.50;95.90
2631;DHT22;1325;48.414;9.952;2022-08-04T10:53:31;35.50;93.30
2631;DHT22;1325;48.414;9.952;2022-08-04T10:58:53;35.20;99.00
2631;DHT22;1325;48.414;9.952;2022-08-04T11:01:24;35.30;91.80
2631;DHT22;1325;48.414;9.952;2022-08-04T11:04:00;36.30;92.30
2631;DHT22;1325;48.414;9.952;2022-08-04T11:06:31;35.80;87.00
2631;DHT22;1325;48.414;9.952;2022-08-04T11:09:00;35.50;83.70
2631;DHT22;1325;48.414;9.952;2022-08-04T11:11:38;35.10;91.30
2631;DHT22;1325;48.414;9.952;2022-08-04T11:14:11;34.50;94.80
2631;DHT22;1325;48.414;9.952;2022-08-04T11:16:44;34.10;93.00
2631;DHT22;1325;48.414;9.952;2022-08-04T11:19:30;34.40;83.90
2631;DHT22;1325;48.414;9.952;2022-08-04T11:22:05;34.00;91.00
2631;DHT22;1325;48.414;9.952;2022-08-04T11:24:39;34.00;89.50
2631;DHT22;1325;48.414;9.952;2022-08-04T11:27:14;33.70;81.60
2631;DHT22;1325;48.414;9.952;2022-08-04T11:29:54;33.40;81.30
2631;DHT22;1325;48.414;9.952;2022-08-04T11:32:29;33.60;77.60
2631;DHT22;1325;48.414;9.952;2022-08-04T11:35:05;33.80;83.20
2631;DHT22;1325;48.414;9.952;2022-08-04T11:37:42;33.60;87.50
2631;DHT22;1325;48.414;9.952;2022-08-04T11:40:23;33.30;92.40
2631;DHT22;1325;48.414;9.952;2022-08-04T11:43:03;33.40;89.40
2631;DHT22;1325;48.414;9.952;2022-08-04T11:45:37;33.20;87.30
2631;DHT22;1325;48.414;9.952;2022-08-04T11:48:12;33.40;83.50
2631;DHT22;1325;48.414;9.952;2022-08-04T11:50:46;33.80;80.40
2631;DHT22;1325;48.414;9.952;2022-08-04T11:53:20;33.60;80.60
2631;DHT22;1325;48.414;9.952;2022-08-04T11:55:51;33.60;79.20
2631;DHT22;1325;48.414;9.952;2022-08-04T11:58:21;33.80;80.00
2631;DHT22;1325;48.414;9.952;2022-08-04T12:00:55;34.00;89.30
2631;DHT22;1325;48.414;9.952;2022-08-04T12:03:33;33.60;82.10
2631;DHT22;1325;48.414;9.952;2022-08-04T12:06:14;33.50;84.10
2631;DHT22;1325;48.414;9.952;2022-08-04T12:08:57;34.00;74.20
2631;DHT22;1325;48.414;9.952;2022-08-04T12:11:39;34.10;74.80
2631;DHT22;1325;48.414;9.952;2022-08-04T12:14:24;34.00;66.90
2631;DHT22;1325;48.414;9.952;2022-08-04T12:16:59;34.00;67.80
2631;DHT22;1325;48.414;9.952;2022-08-04T12:19:36;33.60;74.30
2631;DHT22;1325;48.414;9.952;2022-08-04T12:22:10;33.50;79.50
2631;DHT22;1325;48.414;9.952;2022-08-04T12:24:43;33.30;76.80
2631;DHT22;1325;48.414;9.952;2022-08-04T12:27:19;33.50;82.70
2631;DHT22;1325;48.414;9.952;2022-08-04T12:29:51;33.50;70.80
2631;DHT22;1325;48.414;9.952;2022-08-04T12:32:23;33.80;64.30
2631;DHT22;1325;48.414;9.952;2022-08-04T12:35:00;33.80;73.30
2631;DHT22;1325;48.414;9.952;2022-08-04T12:37:40;33.80;65.80
2631;DHT22;1325;48.414;9.952;2022-08-04T12:40:15;33.80;69.50
2631;DHT22;1325;48.414;9.952;2022-08-04T12:42:54;33.90;74.50
2631;DHT22;1325;48.414;9.952;2022-08-04T12:45:26;34.20;67.30
2631;DHT22;1325;48.414;9.952;2022-08-04T12:47:56;34.20;64.80
2631;DHT22;1325;48.414;9.952;2022-08-04T12:50:25;34.20;67.30
2631;DHT22;1325;48.414;9.952;2022-08-04T12:52:55;33.90;65.50
2631;DHT22;1325;48.414;9.952;2022-08-04T12:55:25;33.80;66.90
2631;DHT22;1325;48.414;9.952;2022-08-04T12:57:56;33.60;68.30
2631;DHT22;1325;48.414;9.952;2022-08-04T13:00:27;33.40;70.20
2631;DHT22;1325;48.414;9.952;2022-08-04T13:03:00;33.60;75.20
2631;DHT22;1325;48.414;9.952;2022-08-04T13:05:32;34.00;73.30
2631;DHT22;1325;48.414;9.952;2022-08-04T13:08:01;34.10;67.00
2631;DHT22;1325;48.414;9.952;2022-08-04T13:10:31;34.10;68.40
2631;DHT22;1325;48.414;9.952;2022-08-04T13:13:03;34.00;73.10
2631;DHT22;1325;48.414;9.952;2022-08-04T13:15:32;33.70;66.60
2631;DHT22;1325;48.414;9.952;2022-08-04T13:18:02;34.00;69.40
2631;DHT22;1325;48.414;9.952;2022-08-04T13:20:35;34.00;68.30
2631;DHT22;1325;48.414;9.952;2022-08-04T13:23:07;33.90;64.50
2631;DHT22;1325;48.414;9.952;2022-08-04T13:25:40;34.30;60.50
2631;DHT22;1325;48.414;9.952;2022-08-04T13:28:13;34.00;62.70
2631;DHT22;1325;48.414;9.952;2022-08-04T13:30:45;34.00;66.40
2631;DHT22;1325;48.414;9.952;2022-08-04T13:33:15;34.10;66.90
2631;DHT22;1325;48.414;9.952;2022-08-04T13:35:44;34.20;69.60
2631;DHT22;1325;48.414;9.952;2022-08-04T13:38:14;34.00;68.60
2631;DHT22;1325;48.414;9.952;2022-08-04T13:40:43;34.30;68.20
2631;DHT22;1325;48.414;9.952;2022-08-04T13:43:22;34.00;66.90
2631;DHT22;1325;48.414;9.952;2022-08-04T13:45:59;34.10;64.80
2631;DHT22;1325;48.414;9.952;2022-08-04T13:48:32;34.30;58.50
2631;DHT22;1325;48.414;9.952;2022-08-04T13:51:03;34.40;60.80
2631;DHT22;1325;48.414;9.952;2022-08-04T13:53:31;34.50;56.50
2631;DHT22;1325;48.414;9.952;2022-08-04T13:56:03;34.70;56.60
2631;DHT22;1325;48.414;9.952;2022-08-04T13:58:34;34.80;56.70
2631;DHT22;1325;48.414;9.952;2022-08-04T14:01:12;34.40;58.20
2631;DHT22;1325;48.414;9.952;2022-08-04T14:03:49;34.40;59.90
2631;DHT22;1325;48.414;9.952;2022-08-04T14:06:22;34.60;59.80
2631;DHT22;1325;48.414;9.952;2022-08-04T14:08:53;34.40;58.60
2631;DHT22;1325;48.414;9.952;2022-08-04T14:11:31;34.10;58.20
2631;DHT22;1325;48.414;9.952;2022-08-04T14:14:03;34.20;58.60
2631;DHT22;1325;48.414;9.952;2022-08-04T14:16:54;34.10;59.50
2631;DHT22;1325;48.414;9.952;2022-08-04T14:19:28;34.20;63.30
2631;DHT22;1325;48.414;9.952;2022-08-04T14:21:55;33.80;62.30
2631;DHT22;1325;48.414;9.952;2022-08-04T14:24:24;33.50;65.10
2631;DHT22;1325;48.414;9.952;2022-08-04T14:26:54;33.80;60.30
2631;DHT22;1325;48.414;9.952;2022-08-04T14:29:25;33.80;59.00
2631;DHT22;1325;48.414;9.952;2022-08-04T14:32:05;34.00;60.60
2631;DHT22;1325;48.414;9.952;2022-08-04T14:34:38;34.20;61.60
2631;DHT22;1325;48.414;9.952;2022-08-04T14:37:07;34.30;62.80
2631;DHT22;1325;48.414;9.952;2022-08-04T14:39:36;34.10;59.90
2631;DHT22;1325;48.414;9.952;2022-08-04T14:42:05;34.10;61.80
2631;DHT22;1325;48.414;9.952;2022-08-04T14:44:51;34.10;58.70
2631;DHT22;1325;48.414;9.952;2022-08-04T14:47:38;33.60;59.10
2631;DHT22;1325;48.414;9.952;2022-08-04T14:50:07;34.00;61.70
2631;DHT22;1325;48.414;9.952;2022-08-04T14:52:35;34.10;59.80
2631;DHT22;1325;48.414;9.952;2022-08-04T14:55:23;33.90;59.60
2631;DHT22;1325;48.414;9.952;2022-08-04T14:57:51;33.40;65.00
2631;DHT22;1325;48.414;9.952;2022-08-04T15:00:24;33.40;63.40
2631;DHT22;1325;48.414;9.952;2022-08-04T15:02:59;33.50;64.60
2631;DHT22;1325;48.414;9.952;2022-08-04T15:05:29;33.60;62.10
2631;DHT22;1325;48.414;9.952;2022-08-04T15:07:57;33.70;60.90
2631;DHT22;1325;48.414;9.952;2022-08-04T15:10:25;33.90;62.90
2631;DHT22;1325;48.414;9.952;2022-08-04T15:12:53;34.00;62.20
2631;DHT22;1325;48.414;9.952;2022-08-04T15:15:21;34.00;62.60
2631;DHT22;1325;48.414;9.952;2022-08-04T15:17:50;33.90;61.20
2631;DHT22;1325;48.414;9.952;2022-08-04T15:20:20;34.10;60.70
2631;DHT22;1325;48.414;9.952;2022-08-04T15:22:48;34.20;61.40
2631;DHT22;1325;48.414;9.952;2022-08-04T15:25:16;33.90;61.10
2631;DHT22;1325;48.414;9.952;2022-08-04T15:27:47;34.00;59.20
2631;DHT22;1325;48.414;9.952;2022-08-04T15:30:17;34.30;58.40
2631;DHT22;1325;48.414;9.952;2022-08-04T15:32:49;34.00;58.00
2631;DHT22;1325;48.414;9.952;2022-08-04T15:35:23;34.00;58.40
2631;DHT22;1325;48.414;9.952;2022-08-04T15:37:56;34.00;58.40
2631;DHT22;1325;48.414;9.952;2022-08-04T15:40:29;34.00;59.40
2631;DHT22;1325;48.414;9.952;2022-08-04T15:43:15;33.80;58.80
2631;DHT22;1325;48.414;9.952;2022-08-04T15:45:50;33.80;61.60
2631;DHT22;1325;48.414;9.952;2022-08-04T15:48:27;33.80;62.00
2631;DHT22;1325;48.414;9.952;2022-08-04T15:51:10;33.70;60.90
2631;DHT22;1325;48.414;9.952;2022-08-04T15:56:50;33.90;62.50
2631;DHT22;1325;48.414;9.952;2022-08-04T16:02:40;33.90;62.10
2631;DHT22;1325;48.414;9.952;2022-08-04T16:05:33;33.90;62.30
2631;DHT22;1325;48.414;9.952;2022-08-04T16:08:15;33.80;62.80
2631;DHT22;1325;48.414;9.952;2022-08-04T16:10:48;33.70;62.40
2631;DHT22;1325;48.414;9.952;2022-08-04T16:13:18;33.80;59.90
2631;DHT22;1325;48.414;9.952;2022-08-04T16:15:51;33.80;60.60
2631;DHT22;1325;48.414;9.952;2022-08-04T16:18:35;33.80;59.90
2631;DHT22;1325;48.414;9.952;2022-08-04T16:21:06;33.70;64.70
2631;DHT22;1325;48.414;9.952;2022-08-04T16:23:56;33.60;65.70
2631;DHT22;1325;48.414;9.952;2022-08-04T16:26:52;33.70;66.50
2631;DHT22;1325;48.414;9.952;2022-08-04T16:29:35;33.60;67.90
2631;DHT22;1325;48.414;9.952;2022-08-04T16:32:13;33.60;67.90
2631;DHT22;1325;48.414;9.952;2022-08-04T16:34:44;33.60;66.50
2631;DHT22;1325;48.414;9.952;2022-08-04T16:37:15;33.50;64.90
2631;DHT22;1325;48.414;9.952;2022-08-04T16:39:44;33.60;67.50
2631;DHT22;1325;48.414;9.952;2022-08-04T16:42:31;33.50;65.30
2631;DHT22;1325;48.414;9.952;2022-08-04T16:45:03;33.20;69.10
2631;DHT22;1325;48.414;9.952;2022-08-04T16:47:59;33.30;66.40
2631;DHT22;1325;48.414;9.952;2022-08-04T16:50:28;33.40;60.70
2631;DHT22;1325;48.414;9.952;2022-08-04T16:52:56;33.40;64.30
2631;DHT22;1325;48.414;9.952;2022-08-04T16:55:27;33.20;65.10
2631;DHT22;1325;48.414;9.952;2022-08-04T16:57:56;33.10;66.90
2631;DHT22;1325;48.414;9.952;2022-08-04T17:00:32;32.90;68.60
2631;DHT22;1325;48.414;9.952;2022-08-04T17:03:01;33.10;64.50
2631;DHT22;1325;48.414;9.952;2022-08-04T17:05:29;33.20;68.20
2631;DHT22;1325;48.414;9.952;2022-08-04T17:07:58;33.20;69.50
2631;DHT22;1325;48.414;9.952;2022-08-04T17:10:32;33.00;68.20
2631;DHT22;1325;48.414;9.952;2022-08-04T17:13:18;33.00;75.30
2631;DHT22;1325;48.414;9.952;2022-08-04T17:15:48;33.10;76.20
2631;DHT22;1325;48.414;9.952;2022-08-04T17:18:18;32.90;74.20
2631;DHT22;1325;48.414;9.952;2022-08-04T17:20:46;32.90;74.90
2631;DHT22;1325;48.414;9.952;2022-08-04T17:23:30;32.90;73.40
2631;DHT22;1325;48.414;9.952;2022-08-04T17:26:02;32.90;74.10
2631;DHT22;1325;48.414;9.952;2022-08-04T17:28:31;32.80;74.20
2631;DHT22;1325;48.414;9.952;2022-08-04T17:31:02;32.60;74.10
2631;DHT22;1325;48.414;9.952;2022-08-04T17:33:30;32.60;74.90
2631;DHT22;1325;48.414;9.952;2022-08-04T17:35:59;32.70;75.30
2631;DHT22;1325;48.414;9.952;2022-08-04T17:38:31;32.70;78.50
2631;DHT22;1325;48.414;9.952;2022-08-04T17:41:04;32.60;78.50
2631;DHT22;1325;48.414;9.952;2022-08-04T17:43:51;32.50;78.20
2631;DHT22;1325;48.414;9.952;2022-08-04T17:46:23;32.50;76.10